Flight Track Log - Related Links

Times and Time Zones

All times are in EDT time to prevent confusion due to time zone crossing. See the EJA162 flight status page for this flight to view local times or setup timezone preferences in your user account.

Time Position Orientation Groundspeed Altitude Reporting Facility
EDT Latitude Longitude Course Direction KTS MPH feet Rate Location/Type
Mon 06:35:00 AM 57.9455 -15.3401 245° Southwest  Level Estimated
Mon 06:36:00 AM 57.9759 -15.5795 245° Southwest  Level Estimated
Mon 06:37:00 AM 57.9507 -15.8211 259° West  Level FlightAware
Mon 06:38:00 AM 57.9249 -16.0623 259° West  Level FlightAware
Mon 06:39:00 AM 57.9543 -16.3021 255° West  Level Estimated
Mon 06:40:00 AM 57.9290 -16.5436 259° West  Level FlightAware
Mon 06:41:00 AM 57.9032 -16.7846 259° West  Level FlightAware
Mon 06:42:00 AM 57.8770 -17.0254 259° West  Level FlightAware
Mon 06:43:00 AM 57.8503 -17.2657 258° West  Level FlightAware
Mon 06:44:00 AM 57.8778 -17.5058 256° West  Level Estimated
Mon 06:45:00 AM 57.8530 -17.7468 259° West  Level FlightAware
Mon 06:46:00 AM 57.8277 -17.9876 259° West  Level FlightAware
Mon 06:47:00 AM 57.8020 -18.2280 259° West  Level FlightAware
Mon 06:48:00 AM 57.7758 -18.4681 259° West  Level FlightAware
Mon 06:49:00 AM 57.7492 -18.7078 258° West  Level FlightAware
Mon 06:50:00 AM 57.7221 -18.9472 258° West  Level FlightAware
Mon 06:51:00 AM 57.6945 -19.1862 258° West  Level FlightAware
Mon 06:52:00 AM 57.6665 -19.4248 258° West  Level FlightAware
Mon 06:53:00 AM 57.6381 -19.6630 258° West  Level FlightAware
Mon 06:54:00 AM 57.6621 -19.9030 258° West  Level Estimated
Mon 06:55:00 AM 57.6335 -20.1411 257° West  Level FlightAware
Mon 06:56:00 AM 57.6045 -20.3789 257° West  Level FlightAware
Mon 06:57:00 AM 57.6274 -20.6190 257° West  Level Estimated
Mon 06:57:26 AM 54.0000 -20.0000 265° West 504 580 43,000  Level ETMS Enhanced
Mon 06:58:00 AM 57.6029 -20.8585 259° West  Level FlightAware
Mon 06:59:00 AM 57.5779 -21.0978 259° West  Level FlightAware
Mon 07:00:00 AM 57.5526 -21.3367 259° West  Level FlightAware
Mon 07:01:00 AM 57.5267 -21.5752 259° West  Level FlightAware
Mon 07:02:00 AM 57.5004 -21.8134 258° West  Level FlightAware
Mon 07:03:00 AM 53.8777 -21.8934 263° West 504 580 43,000  Level FlightAware
Mon 07:04:00 AM 53.8603 -22.1292 263° West 504 580 43,000  Level FlightAware
Mon 07:05:00 AM 53.8425 -22.3649 263° West 504 580 43,000  Level FlightAware
Mon 07:06:00 AM 53.8242 -22.6003 262° West 504 580 43,000  Level FlightAware
Mon 07:07:00 AM 53.8054 -22.8356 262° West 504 580 43,000  Level FlightAware
Mon 07:08:00 AM 53.7862 -23.0706 262° West 504 580 43,000  Level FlightAware
Mon 07:09:00 AM 53.7665 -23.3054 262° West 504 580 43,000  Level FlightAware
Mon 07:10:00 AM 53.7464 -23.5400 262° West 504 580 43,000  Level FlightAware
Mon 07:11:00 AM 53.7258 -23.7744 261° West 504 580 43,000  Level FlightAware
Mon 07:12:00 AM 53.7047 -24.0085 261° West 504 580 43,000  Level FlightAware
Mon 07:13:00 AM 53.6832 -24.2424 261° West 504 580 43,000  Level FlightAware
Mon 07:14:00 AM 53.6613 -24.4761 261° West 504 580 43,000  Level FlightAware
Mon 07:15:00 AM 53.6389 -24.7095 261° West 504 580 43,000  Level FlightAware
Mon 07:16:00 AM 53.6160 -24.9426 261° West 504 580 43,000  Level FlightAware
Mon 07:17:00 AM 53.5927 -25.1755 260° West 504 580 43,000  Level FlightAware
Mon 07:18:00 AM 53.5689 -25.4082 260° West 504 580 43,000  Level FlightAware
Mon 07:19:00 AM 53.5447 -25.6406 260° West 504 580 43,000  Level FlightAware
Mon 07:20:00 AM 53.5200 -25.8727 260° West 504 580 43,000  Level FlightAware
Mon 07:21:00 AM 53.4949 -26.1045 260° West 504 580 43,000  Level FlightAware
Mon 07:22:00 AM 53.4693 -26.3361 259° West 504 580 43,000  Level FlightAware
Mon 07:23:00 AM 53.4433 -26.5674 259° West 504 580 43,000  Level FlightAware
Mon 07:24:00 AM 53.4168 -26.7983 259° West 504 580 43,000  Level FlightAware
Mon 07:25:00 AM 53.3899 -27.0291 259° West 504 580 43,000  Level FlightAware
Mon 07:26:00 AM 53.3625 -27.2595 259° West 504 580 43,000  Level FlightAware
Mon 07:27:00 AM 53.3347 -27.4896 258° West 504 580 43,000  Level FlightAware
Mon 07:28:00 AM 53.3065 -27.7194 258° West 504 580 43,000  Level FlightAware
Mon 07:29:00 AM 53.2778 -27.9489 258° West 504 580 43,000  Level FlightAware
Mon 07:30:00 AM 53.2487 -28.1781 258° West 504 580 43,000  Level FlightAware
Mon 07:31:00 AM 53.2191 -28.4070 258° West 504 580 43,000  Level FlightAware
Mon 07:32:00 AM 53.1891 -28.6355 258° West 504 580 43,000  Level FlightAware
Mon 07:33:00 AM 53.1587 -28.8638 257° West 504 580 43,000  Level FlightAware
Mon 07:34:00 AM 53.1278 -29.0917 257° West 504 580 43,000  Level FlightAware
Mon 07:35:00 AM 53.0965 -29.3193 257° West 504 580 43,000  Level FlightAware
Mon 07:36:00 AM 53.0648 -29.5465 257° West 504 580 43,000  Level FlightAware
Mon 07:37:00 AM 53.0326 -29.7734 257° West 504 580 43,000  Level FlightAware
Mon 07:38:00 AM 53.0022 -29.9846 257° West  Level FlightAware
Mon 07:39:00 AM 52.9715 -30.1955 256° West  Level FlightAware
Mon 07:40:00 AM 52.9729 -30.1797 256° West  Level FlightAware
Mon 07:40:40 AM 53.0000 -30.0000 256° West 506 582 43,000  Level ETMS Enhanced
Mon 07:41:00 AM 52.9407 -30.3899 256° West  Level FlightAware
Mon 07:42:00 AM 52.9082 -30.5997 256° West  Level FlightAware
Mon 07:43:00 AM 52.8754 -30.8093 256° West  Level FlightAware
Mon 07:44:00 AM 52.8422 -31.0185 255° West  Level FlightAware
Mon 07:45:00 AM 52.8086 -31.2274 255° West  Level FlightAware
Mon 07:46:00 AM 52.7513 -31.5776 255° West 506 582 43,000  Level FlightAware
Mon 07:47:00 AM 52.7141 -31.8015 255° West 506 582 43,000  Level FlightAware
Mon 07:48:00 AM 52.6764 -32.0250 254° West 506 582 43,000  Level FlightAware
Mon 07:49:00 AM 52.6384 -32.2481 254° West 506 582 43,000  Level FlightAware
Mon 07:50:00 AM 52.5999 -32.4708 254° West 506 582 43,000  Level FlightAware
Mon 07:51:00 AM 52.5610 -32.6932 254° West 506 582 43,000  Level FlightAware
Mon 07:52:00 AM 52.5216 -32.9151 254° West 506 582 43,000  Level FlightAware
Mon 07:53:00 AM 52.4819 -33.1366 253° West 506 582 43,000  Level FlightAware
Mon 07:54:00 AM 52.4418 -33.3578 253° West 506 582 43,000  Level FlightAware
Mon 07:55:00 AM 52.4012 -33.5785 253° West 506 582 43,000  Level FlightAware
Mon 07:56:00 AM 52.3602 -33.7988 253° West 506 582 43,000  Level FlightAware
Mon 07:57:00 AM 52.3189 -34.0187 253° West 506 582 43,000  Level FlightAware
Mon 07:58:00 AM 52.2771 -34.2382 253° West 506 582 43,000  Level FlightAware
Mon 07:59:00 AM 52.2349 -34.4573 252° West 506 582 43,000  Level FlightAware
Mon 08:00:00 AM 52.1923 -34.6759 252° West 506 582 43,000  Level FlightAware
Mon 08:01:00 AM 52.1493 -34.8942 252° West 506 582 43,000  Level FlightAware
Mon 08:02:00 AM 52.1059 -35.1120 252° West 506 582 43,000  Level FlightAware
Mon 08:03:00 AM 52.0621 -35.3294 252° West 506 582 43,000  Level FlightAware
Mon 08:04:00 AM 52.0179 -35.5463 252° West 506 582 43,000  Level FlightAware
Mon 08:05:00 AM 51.9733 -35.7629 251° West 506 582 43,000  Level FlightAware
Mon 08:06:00 AM 51.9283 -35.9790 251° West 506 582 43,000  Level FlightAware
Mon 08:07:00 AM 51.8829 -36.1946 251° West 506 582 43,000  Level FlightAware
Mon 08:08:00 AM 51.8371 -36.4099 251° West 506 582 43,000  Level FlightAware
Mon 08:09:00 AM 51.7909 -36.6247 251° West 506 582 43,000  Level FlightAware
Mon 08:10:00 AM 51.7444 -36.8390 251° West 506 582 43,000  Level FlightAware
Mon 08:11:00 AM 51.6974 -37.0529 250° West 506 582 43,000  Level FlightAware
Mon 08:12:00 AM 51.6501 -37.2664 250° West 506 582 43,000  Level FlightAware
Mon 08:13:00 AM 51.6023 -37.4794 250° West 506 582 43,000  Level FlightAware
Mon 08:14:00 AM 51.5542 -37.6920 250° West 506 582 43,000  Level FlightAware
Mon 08:15:00 AM 51.5057 -37.9041 250° West 506 582 43,000  Level FlightAware
Mon 08:16:00 AM 51.4568 -38.1157 250° West 506 582 43,000  Level FlightAware
Mon 08:17:00 AM 51.4076 -38.3269 249° West 506 582 43,000  Level FlightAware
Mon 08:18:00 AM 51.3579 -38.5377 249° West 506 582 43,000  Level FlightAware
Mon 08:19:00 AM 51.3079 -38.7480 249° West 506 582 43,000  Level FlightAware
Mon 08:20:00 AM 51.2575 -38.9578 249° West 506 582 43,000  Level FlightAware
Mon 08:21:00 AM 51.2068 -39.1672 249° West 506 582 43,000  Level FlightAware
Mon 08:22:00 AM 51.1556 -39.3761 249° West 506 582 43,000  Level FlightAware
Mon 08:23:00 AM 51.1041 -39.5845 248° West 506 582 43,000  Level FlightAware
Mon 08:24:00 AM 51.0522 -39.7925 248° West 506 582 43,000  Level FlightAware
Mon 08:25:00 AM 51.0037 -39.9853 248° West  Level FlightAware
Mon 08:26:00 AM 50.9548 -40.1777 248° West  Level FlightAware
Mon 08:27:00 AM 50.9600 -40.1639 249° West  Level FlightAware
Mon 08:27:00 AM 51.0000 -40.0000 249° West 535 616 43,000  Level ETMS Enhanced
Mon 08:28:00 AM 50.9124 -40.3569 249° West  Level FlightAware
Mon 08:29:00 AM 50.8645 -40.5496 249° West  Level FlightAware
Mon 08:30:00 AM 50.8164 -40.7418 248° West  Level FlightAware
Mon 08:31:00 AM 50.7679 -40.9337 248° West  Level FlightAware
Mon 08:32:00 AM 50.7191 -41.1251 248° West  Level FlightAware
Mon 08:33:00 AM 50.5047 -41.9679 248° West 535 616 43,000  Level FlightAware
Mon 08:34:00 AM 50.4477 -42.1840 247° West 535 616 43,000  Level FlightAware
Mon 08:35:00 AM 50.3902 -42.3996 247° West 535 616 43,000  Level FlightAware
Mon 08:36:00 AM 50.3324 -42.6146 247° West 535 616 43,000  Level FlightAware
Mon 08:37:00 AM 50.2741 -42.8291 247° West 535 616 43,000  Level FlightAware
Mon 08:38:00 AM 50.2155 -43.0431 247° West 535 616 43,000  Level FlightAware
Mon 08:39:00 AM 50.1564 -43.2565 247° West 535 616 43,000  Level FlightAware
Mon 08:40:00 AM 50.0970 -43.4694 246° West 535 616 43,000  Level FlightAware
Mon 08:41:00 AM 50.0372 -43.6818 246° West 535 616 43,000  Level FlightAware
Mon 08:42:00 AM 49.9770 -43.8937 246° West 535 616 43,000  Level FlightAware
Mon 08:43:00 AM 49.9164 -44.1050 246° West 535 616 43,000  Level FlightAware
Mon 08:44:00 AM 49.8554 -44.3158 246° West 535 616 43,000  Level FlightAware
Mon 08:45:00 AM 49.7941 -44.5261 246° West 535 616 43,000  Level FlightAware
Mon 08:46:00 AM 49.7323 -44.7358 245° Southwest 535 616 43,000  Level FlightAware
Mon 08:47:00 AM 49.6702 -44.9450 245° Southwest 535 616 43,000  Level FlightAware
Mon 08:48:00 AM 49.6077 -45.1537 245° Southwest 535 616 43,000  Level FlightAware
Mon 08:49:00 AM 49.5449 -45.3618 245° Southwest 535 616 43,000  Level FlightAware
Mon 08:50:00 AM 49.4817 -45.5694 245° Southwest 535 616 43,000  Level FlightAware
Mon 08:51:00 AM 49.4180 -45.7765 245° Southwest 535 616 43,000  Level FlightAware
Mon 08:52:00 AM 49.3541 -45.9830 244° Southwest 535 616 43,000  Level FlightAware
Mon 08:53:00 AM 49.2897 -46.1890 244° Southwest 535 616 43,000  Level FlightAware
Mon 08:54:00 AM 49.2250 -46.3944 244° Southwest 535 616 43,000  Level FlightAware
Mon 08:55:00 AM 49.1600 -46.5993 244° Southwest 535 616 43,000  Level FlightAware
Mon 08:56:00 AM 49.0946 -46.8037 244° Southwest 535 616 43,000  Level FlightAware
Mon 08:57:00 AM 49.0288 -47.0075 244° Southwest 535 616 43,000  Level FlightAware
Mon 08:58:00 AM 48.9626 -47.2108 244° Southwest 535 616 43,000  Level FlightAware
Mon 08:59:00 AM 48.8961 -47.4135 243° Southwest 535 616 43,000  Level FlightAware
Mon 09:00:00 AM 48.8293 -47.6157 243° Southwest 535 616 43,000  Level FlightAware
Mon 09:01:00 AM 48.7621 -47.8174 243° Southwest 535 616 43,000  Level FlightAware
Mon 09:02:00 AM 48.6945 -48.0185 243° Southwest 535 616 43,000  Level FlightAware
Mon 09:03:00 AM 48.6266 -48.2191 243° Southwest 535 616 43,000  Level FlightAware
Mon 09:04:00 AM 48.5583 -48.4191 243° Southwest 535 616 43,000  Level FlightAware
Mon 09:05:00 AM 48.4897 -48.6186 242° Southwest 535 616 43,000  Level FlightAware
Mon 09:06:00 AM 48.4208 -48.8176 242° Southwest 535 616 43,000  Level FlightAware
Mon 09:07:00 AM 48.3515 -49.0160 242° Southwest 535 616 43,000  Level FlightAware
Mon 09:08:00 AM 48.2819 -49.2139 242° Southwest 535 616 43,000  Level FlightAware
Mon 09:09:00 AM 48.2119 -49.4112 242° Southwest 535 616 43,000  Level FlightAware
Mon 09:10:00 AM 48.1416 -49.6080 242° Southwest 535 616 43,000  Level FlightAware
Mon 09:11:00 AM 48.0710 -49.8043 242° Southwest 535 616 43,000  Level FlightAware
Mon 09:12:00 AM 48.0086 -49.9763 242° Southwest  Level FlightAware
Mon 09:13:00 AM 47.9460 -50.1480 241° Southwest  Level FlightAware
Mon 09:14:00 AM 47.9754 -50.1374 255° West  Level FlightAware
Mon 09:15:00 AM 47.9413 -50.3260 255° West  Level FlightAware
Mon 09:16:00 AM 47.9069 -50.5144 255° West  Level FlightAware
Mon 09:16:23 AM 48.0000 -50.0000 255° West 498 573 43,000  Level ETMS Enhanced
Mon 09:17:00 AM 47.8722 -50.7026 255° West  Level FlightAware
Mon 09:17:01 AM 47.9333 -50.2167 256° West 510 587 43,000  Level Gander Center
Mon 09:18:00 AM 47.8372 -50.8905 255° West  Level FlightAware
Mon 09:18:01 AM 47.9000 -50.4167 256° West 500 575 43,000  Level Gander Center
Mon 09:19:00 AM 47.8032 -51.0787 256° West  Level FlightAware
Mon 09:19:01 AM 47.8667 -50.6167 256° West 500 575 43,000  Level Gander Center
Mon 09:20:00 AM 47.7706 -51.2674 256° West  Level FlightAware
Mon 09:20:01 AM 47.8333 -50.8000 255° West 510 587 43,000  Level Gander Center
Mon 09:21:00 AM 47.7377 -51.4558 256° West  Level FlightAware
Mon 09:21:01 AM 47.8000 -51.0167 257° West 510 587 43,000  Level Gander Center
Mon 09:22:00 AM 47.8067 -51.0582 256° West  Level FlightAware
Mon 09:22:01 AM 47.7667 -51.2167 256° West 500 575 43,000  Level Gander Center
Mon 09:23:01 AM 47.7333 -51.4333 257° West 500 575 43,000  Level Gander Center
Mon 09:24:01 AM 47.7000 -51.6167 255° West 500 575 43,000  Level Gander Center
Mon 09:25:01 AM 47.6667 -51.8167 256° West 490 564 43,000  Level Gander Center
Mon 09:26:01 AM 47.6167 -52.0000 248° West 490 564 43,000  Level Gander Center
Mon 09:27:01 AM 47.6000 -52.1833 262° West 470 541 43,000  Level Gander Center
Mon 09:28:01 AM 47.5500 -52.3667 248° West 470 541 43,000  Level Gander Center
Mon 09:29:01 AM 47.5000 -52.5667 250° West 470 541 43,000 50 Level Gander Center
Mon 09:30:01 AM 47.4667 -52.7500 255° West 470 541 43,100 250 Climbing Gander Center
Mon 09:31:01 AM 47.4500 -52.9167 262° West 460 529 43,500 450 Climbing Gander Center
Mon 09:32:01 AM 47.4333 -53.1000 262° West 440 506 44,000 450 Climbing Gander Center
Mon 09:33:01 AM 47.4000 -53.2833 255° West 450 518 44,400 450 Climbing Gander Center
Mon 09:34:01 AM 47.3667 -53.4833 256° West 450 518 44,900 396 Climbing Gander Center
Mon 09:34:32 AM 47.3500 -53.5500 250° West 450 518 45,000 66 Climbing Moncton Center
Mon 09:35:32 AM 47.3167 -53.7667 257° West 460 529 45,000  Level Moncton Center
Mon 09:36:32 AM 47.2833 -53.9333 254° West 480 552 45,000  Level Moncton Center
Mon 09:37:32 AM 47.2667 -54.1167 262° West 490 564 45,000  Level Moncton Center
Mon 09:38:32 AM 47.2167 -54.3167 250° West 490 564 45,000  Level Moncton Center
Mon 09:39:32 AM 47.2000 -54.5333 264° West 490 564 45,000  Level Moncton Center
Mon 09:40:32 AM 47.1667 -54.7333 256° West 480 552 45,000  Level Moncton Center
Mon 09:41:32 AM 47.1333 -54.9167 255° West 480 552 45,000  Level Moncton Center
Mon 09:42:32 AM 47.1000 -55.1167 256° West 480 552 45,000  Level Moncton Center
Mon 09:43:32 AM 47.0667 -55.3000 255° West 470 541 45,000  Level Moncton Center
Mon 09:44:32 AM 47.0333 -55.4667 254° West 470 541 45,000  Level Moncton Center
Mon 09:45:32 AM 47.0167 -55.6500 262° West 470 541 45,000  Level Moncton Center
Mon 09:46:32 AM 46.9833 -55.8500 256° West 470 541 45,000  Level Moncton Center
Mon 09:47:32 AM 46.9333 -56.0333 248° West 470 541 45,000  Level Moncton Center
Mon 09:48:32 AM 46.9000 -56.2000 254° West 460 529 45,000  Level Moncton Center
Mon 09:49:32 AM 46.8833 -56.3833 262° West 460 529 45,000  Level Moncton Center
Mon 09:50:32 AM 46.8500 -56.5667 255° West 460 529 45,000  Level Moncton Center
Mon 09:51:32 AM 46.8000 -56.7667 250° West 460 529 45,000  Level Moncton Center
Mon 09:52:32 AM 46.7667 -56.9167 252° West 460 529 45,000  Level Moncton Center
Mon 09:53:32 AM 46.7500 -57.1167 263° West 460 529 45,000  Level Moncton Center
Mon 09:54:32 AM 46.7000 -57.2833 246° West 460 529 45,000  Level Moncton Center
Mon 09:55:32 AM 46.6667 -57.4667 255° West 460 529 45,000  Level Moncton Center
Mon 09:56:32 AM 46.6333 -57.6667 256° West 470 541 45,000  Level Moncton Center
Mon 09:57:32 AM 46.6000 -57.8167 252° West 460 529 45,000  Level Moncton Center
Mon 09:58:32 AM 46.5667 -58.0167 256° West 460 529 45,000  Level Moncton Center
Mon 09:59:32 AM 46.5833 -58.2167 277° West 470 541 45,000  Level Moncton Center
Mon 10:00:32 AM 46.5833 -58.4000 270° West 480 552 45,000  Level Moncton Center
Mon 10:01:32 AM 46.5833 -58.6000 270° West 470 541 45,000  Level Moncton Center
Mon 10:02:32 AM 46.5833 -58.8000 270° West 470 541 45,000  Level Moncton Center
Mon 10:03:32 AM 46.5833 -58.9833 270° West 470 541 45,000  Level Moncton Center
Mon 10:04:32 AM 46.6000 -59.1833 277° West 470 541 45,000  Level Moncton Center
Mon 10:05:32 AM 46.5833 -59.3500 262° West 470 541 45,000  Level Moncton Center
Mon 10:06:32 AM 46.5833 -59.5500 270° West 470 541 45,000  Level Moncton Center
Mon 10:07:32 AM 46.5833 -59.7500 270° West 470 541 45,000  Level Moncton Center
Mon 10:08:32 AM 46.5833 -59.9167 270° West 470 541 45,000  Level Moncton Center
Mon 10:09:32 AM 46.5833 -60.1333 270° West 470 541 45,000  Level Moncton Center
Mon 10:10:32 AM 46.5833 -60.3000 270° West 470 541 45,000  Level Moncton Center
Mon 10:11:32 AM 46.5833 -60.5000 270° West 470 541 45,000  Level Moncton Center
Mon 10:12:32 AM 46.5833 -60.7000 270° West 470 541 45,000 200 Level Moncton Center
Mon 10:13:32 AM 46.5667 -60.8833 263° West 460 529 45,400 450 Climbing Moncton Center
Mon 10:14:32 AM 46.5833 -61.0667 278° West 460 529 45,900 600 Climbing Moncton Center
Mon 10:15:32 AM 46.5667 -61.2500 263° West 450 518 46,600 450 Climbing Moncton Center
Mon 10:16:32 AM 46.5667 -61.4333 270° West 450 518 46,800 200 Climbing Moncton Center
Mon 10:17:32 AM 46.5833 -61.6167 278° West 450 518 47,000 100 Climbing Moncton Center
Mon 10:18:32 AM 46.5667 -61.8000 263° West 460 529 47,000  Level Moncton Center
Mon 10:19:32 AM 46.5667 -61.9833 270° West 460 529 47,000  Level Moncton Center
Mon 10:20:32 AM 46.5500 -62.1500 262° West 470 541 47,000  Level Moncton Center
Mon 10:21:32 AM 46.5667 -62.3833 276° West 470 541 47,000  Level Moncton Center
Mon 10:22:32 AM 46.5500 -62.5500 262° West 470 541 47,000  Level Moncton Center
Mon 10:23:32 AM 46.5500 -62.7500 270° West 470 541 47,000  Level Moncton Center
Mon 10:24:32 AM 46.5333 -62.9333 263° West 470 541 47,000  Level Moncton Center
Mon 10:25:32 AM 46.5333 -63.1333 270° West 470 541 47,000  Level Moncton Center
Mon 10:26:32 AM 46.5167 -63.3333 263° West 470 541 47,000  Level Moncton Center
Mon 10:27:32 AM 46.5167 -63.5000 270° West 470 541 47,000  Level Moncton Center
Mon 10:28:32 AM 46.5167 -63.7167 270° West 470 541 47,000  Level Moncton Center
Mon 10:33:53 AM 46.4893 -64.7661 270° West 478 550 47,000  Level FlightAware
Mon 10:34:37 AM 46.4830 -64.9063 266° West 477 549 47,000  Level FlightAware
Mon 10:35:10 AM 46.4791 -64.9902 266° West 477 549 47,000  Level FlightAware
Mon 10:36:05 AM 46.4700 -65.1835 266° West 471 542 47,000  Level FlightAware
Mon 10:41:53 AM 46.4152 -66.2264 266° West 472 543 47,000  Level FlightAware
Mon 10:42:35 AM 46.4125 -66.2734 265° West 471 542 47,000  Level FlightAware
Mon 10:43:11 AM 46.3987 -66.5103 265° West 470 541 47,000  Level FlightAware
Mon 10:43:47 AM 46.3932 -66.6021 265° West 469 540 47,000  Level FlightAware
Mon 10:44:20 AM 46.3859 -66.7204 265° West 468 539 47,000  Level FlightAware
Mon 10:44:51 AM 46.3801 -66.8144 265° West 467 537 47,000  Level FlightAware
Mon 10:45:30 AM 46.3721 -66.9412 265° West 468 539 47,000  Level FlightAware
Mon 10:46:08 AM 46.3644 -67.0613 265° West 468 539 47,000  Level FlightAware
Mon 10:46:38 AM 46.3597 -67.1347 265° West 468 539 47,000  Level FlightAware
Mon 10:47:11 AM 46.3544 -67.2149 265° West 468 539 47,000  Level FlightAware
Mon 10:47:42 AM 46.3453 -67.3515 265° West 468 539 47,000  Level FlightAware
Mon 10:48:27 AM 46.3361 -67.4873 264° West 469 540 47,000  Level FlightAware
Mon 10:48:59 AM 46.3289 -67.5931 264° West 469 540 47,000  Level FlightAware
Mon 10:49:46 AM 46.3193 -67.7302 264° West 471 542 47,000  Level FlightAware
Mon 10:50:36 AM 46.3077 -67.8926 264° West 472 543 47,000  Level FlightAware
Mon 10:51:06 AM 46.3017 -67.9757 264° West 473 544 47,000  Level FlightAware
Mon 10:51:38 AM 46.2941 -68.0802 264° West 473 544 47,000  Level FlightAware
Mon 10:52:09 AM 46.2873 -68.1722 264° West 473 544 47,000  Level FlightAware
Mon 10:52:47 AM 46.2772 -68.3067 264° West 473 544 47,000  Level FlightAware
Mon 10:53:18 AM 46.2724 -68.3695 264° West 474 545 47,000  Level FlightAware
Mon 10:53:52 AM 46.2630 -68.4924 264° West 474 545 47,000  Level FlightAware
Mon 10:54:32 AM 46.2522 -68.6313 264° West 473 544 47,000  Level FlightAware
Mon 10:55:04 AM 46.2440 -68.7344 264° West 472 543 47,000  Level FlightAware
Mon 10:55:44 AM 46.2343 -68.8560 263° West 471 542 47,000  Level FlightAware
Mon 10:56:18 AM 46.2276 -68.9388 263° West 471 542 47,000  Level FlightAware
Mon 10:56:56 AM 46.2164 -69.0757 263° West 470 541 47,000  Level FlightAware
Mon 10:57:41 AM 46.2045 -69.2188 263° West 471 542 47,000  Level FlightAware
Mon 10:58:22 AM 46.1938 -69.3458 263° West 472 543 47,000  Level FlightAware
Mon 10:58:54 AM 46.1864 -69.4328 263° West 472 543 47,000  Level FlightAware
Mon 10:59:25 AM 46.1767 -69.5447 263° West 471 542 47,000  Level FlightAware
Mon 11:00:11 AM 46.1646 -69.6833 263° West 472 543 47,000  Level FlightAware
Mon 11:00:41 AM 46.1568 -69.7723 263° West 472 543 47,000  Level FlightAware
Mon 11:01:24 AM 46.1441 -69.9136 263° West 473 544 47,000  Level FlightAware
Mon 11:02:03 AM 46.1342 -70.0228 263° West 474 545 47,000  Level FlightAware
Mon 11:02:37 AM 46.1233 -70.1427 263° West 474 545 47,000  Level FlightAware
Mon 11:03:07 AM 46.1155 -70.2270 262° West 474 545 47,000  Level FlightAware
Mon 11:03:51 AM 46.1020 -70.3710 262° West 473 544 47,000  Level FlightAware
Mon 11:04:30 AM 46.0904 -70.4937 262° West 473 544 47,000  Level FlightAware
Mon 11:05:03 AM 46.0806 -70.5963 262° West 473 544 47,000  Level FlightAware
Mon 11:06:16 AM 46.0587 -70.8216 262° West 473 544 47,000  Level FlightAware
Mon 11:06:47 AM 46.0491 -70.9188 262° West 473 544 47,000  Level FlightAware
Mon 11:07:37 AM 46.0335 -71.0751 262° West 473 544 47,000  Level FlightAware
Mon 11:08:07 AM 46.0241 -71.1682 262° West 473 544 47,000  Level FlightAware
Mon 11:08:56 AM 46.0063 -71.3134 260° West 473 544 47,000  Level FlightAware
Mon 11:09:35 AM 45.9850 -71.4320 256° West 474 545 47,000  Level FlightAware
Mon 11:10:08 AM 45.9654 -71.5390 255° West 476 548 47,000  Level FlightAware
Mon 11:10:59 AM 45.9370 -71.6931 255° West 474 545 47,000  Level FlightAware
Mon 11:11:35 AM 45.9168 -71.8022 255° West 473 544 47,000  Level FlightAware
Mon 11:12:14 AM 45.8947 -71.9207 255° West 472 543 47,000  Level FlightAware
Mon 11:12:48 AM 45.8757 -72.0214 255° West 472 543 47,000  Level FlightAware
Mon 11:13:36 AM 45.8520 -72.1465 255° West 471 542 47,000  Level FlightAware
Mon 11:14:18 AM 45.8243 -72.2918 255° West 471 542 47,000  Level FlightAware
Mon 11:14:49 AM 45.8062 -72.3866 255° West 471 542 47,000  Level FlightAware
Mon 11:15:23 AM 45.7882 -72.4795 255° West 471 542 47,000  Level FlightAware
Mon 11:16:20 AM 45.7535 -72.6586 255° West 470 541 47,000  Level FlightAware
Mon 11:17:32 AM 45.7000 -72.8833 255° West 470 541 47,000  Level Moncton Center
Mon 11:18:32 AM 45.6500 -73.0500 247° West 470 541 47,000  Level Moncton Center
Mon 11:19:32 AM 45.6167 -73.2667 258° West 470 541 47,000  Level Moncton Center
Mon 11:20:32 AM 45.6000 -73.4167 261° West 470 541 47,000  Level Moncton Center
Mon 11:21:32 AM 45.5500 -73.5833 247° West 470 541 47,000  Level Moncton Center
Mon 11:22:32 AM 45.5167 -73.7667 256° West 460 529 47,000  Level Moncton Center
Mon 11:23:32 AM 45.4833 -73.9500 256° West 460 529 47,000  Level Moncton Center
Mon 11:24:49 AM 45.4500 -74.1500 257° West 460 529 47,000  Level Montreal Center
Mon 11:25:49 AM 45.4000 -74.3167 247° West 460 529 47,000  Level Montreal Center
Mon 11:26:49 AM 45.3667 -74.4833 254° West 460 529 47,000  Level Montreal Center
Mon 11:27:49 AM 45.3333 -74.6833 257° West 460 529 47,000  Level Montreal Center
Mon 11:28:49 AM 45.2833 -74.8500 247° West 460 529 47,000  Level Montreal Center
Mon 11:29:49 AM 45.2500 -75.0167 254° West 460 529 47,000  Level Montreal Center
Mon 11:30:49 AM 45.2000 -75.2000 249° West 460 529 47,000  Level Montreal Center
Mon 11:31:49 AM 45.1667 -75.3667 254° West 460 529 47,000  Level Montreal Center
Mon 11:32:49 AM 45.1333 -75.5333 254° West 460 529 47,000  Level Montreal Center
Mon 11:33:49 AM 45.0833 -75.7333 251° West 470 541 47,000  Level Montreal Center
Mon 11:34:49 AM 45.0500 -75.9000 254° West 460 529 47,000  Level Montreal Center
Mon 11:35:49 AM 45.0167 -76.0667 254° West 460 529 47,000  Level Montreal Center
Mon 11:36:49 AM 44.9667 -76.2333 247° West 460 529 47,000  Level Montreal Center
Mon 11:37:49 AM 44.9333 -76.4167 256° West 460 529 47,000  Level Montreal Center
Mon 11:38:49 AM 44.9000 -76.5833 254° West 460 529 47,000  Level Montreal Center
Mon 11:39:49 AM 44.8500 -76.7500 247° West 460 529 47,000  Level Montreal Center
Mon 11:40:49 AM 44.8167 -76.9333 256° West 460 529 47,000  Level Montreal Center
Mon 11:41:49 AM 44.7667 -77.1000 247° West 460 529 47,000  Level Montreal Center
Mon 11:42:49 AM 44.7333 -77.2667 254° West 460 529 47,000  Level Montreal Center
Mon 11:43:49 AM 44.7000 -77.4500 256° West 460 529 47,000  Level Montreal Center
Mon 11:44:49 AM 44.6500 -77.6167 247° West 460 529 47,000  Level Montreal Center
Mon 11:45:49 AM 44.6000 -77.8000 249° West 470 541 47,000  Level Montreal Center
Mon 11:46:49 AM 44.5667 -77.9667 254° West 470 541 47,000  Level Montreal Center
Mon 11:47:49 AM 44.5167 -78.1500 249° West 460 529 47,000  Level Montreal Center
Mon 11:48:49 AM 44.4833 -78.3167 254° West 470 541 47,000  Level Montreal Center
Mon 11:49:49 AM 44.4167 -78.5000 243° Southwest 470 541 47,000  Level Montreal Center
Mon 11:50:49 AM 44.3833 -78.6667 254° West 470 541 47,000  Level Montreal Center
Mon 11:51:49 AM 44.3500 -78.8500 256° West 470 541 47,000  Level Montreal Center
Mon 11:52:49 AM 44.3000 -79.0000 245° Southwest 470 541 47,000  Level Montreal Center
Mon 11:53:49 AM 44.2500 -79.1667 247° West 460 529 47,000  Level Montreal Center
Mon 11:54:49 AM 44.2167 -79.3000 251° West 460 529 47,000  Level Montreal Center
Mon 11:56:16 AM 44.1500 -79.5333 248° West 460 529 47,000  Level Toronto Center
Mon 11:57:16 AM 44.1000 -79.7000 247° West 450 518 47,000  Level Toronto Center
Mon 11:58:16 AM 44.0667 -79.8833 256° West 450 518 47,000  Level Toronto Center
Mon 11:59:16 AM 44.0167 -80.0333 245° Southwest 450 518 47,000  Level Toronto Center
Mon 12:00:16 PM 43.9667 -80.2167 249° West 460 529 47,000  Level Toronto Center
Mon 12:01:16 PM 43.9333 -80.3667 253° West 460 529 47,000  Level Toronto Center
Mon 12:02:16 PM 43.8833 -80.5333 247° West 450 518 47,000  Level Toronto Center
Mon 12:03:16 PM 43.8333 -80.7000 247° West 450 518 47,000  Level Toronto Center
Mon 12:04:16 PM 43.7833 -80.8500 245° Southwest 450 518 47,000  Level Toronto Center
Mon 12:05:16 PM 43.7333 -81.0167 248° West 450 518 47,000  Level Toronto Center
Mon 12:06:16 PM 43.6833 -81.1833 248° West 450 518 47,000  Level Toronto Center
Mon 12:07:16 PM 43.6500 -81.3333 253° West 450 518 47,000  Level Toronto Center
Mon 12:08:16 PM 43.6000 -81.5167 249° West 450 518 47,000  Level Toronto Center
Mon 12:09:16 PM 43.5500 -81.6500 243° Southwest 450 518 47,000  Level Toronto Center
Mon 12:10:16 PM 43.5167 -81.8167 255° West 450 518 47,000  Level Toronto Center
Mon 12:11:16 PM 43.4500 -82.0000 243° Southwest 450 518 47,000  Level Toronto Center
Mon 12:12:25 PM 43.4219 -82.1586 256° West 457 526 47,000  Level Cleveland Center
Mon 12:13:27 PM 43.3750 -82.3200 248° West 457 526 47,000 -484 Level Cleveland Center
Mon 12:14:29 PM 43.3311 -82.5156 253° West 450 518 46,000 -1,210 Descending Cleveland Center
Mon 12:15:31 PM 43.2933 -82.6786 252° West 450 518 44,500 -1,306 Descending Cleveland Center
Mon 12:16:33 PM 43.2556 -82.8489 253° West 463 533 43,300 -1,210 Descending Cleveland Center
Mon 12:17:35 PM 43.2200 -83.0094 253° West 447 514 42,000 -1,210 Descending Cleveland Center
Mon 12:18:37 PM 43.1831 -83.1647 252° West 436 502 40,800 -1,258 Descending Cleveland Center
Mon 12:19:39 PM 43.1422 -83.3514 253° West 429 494 39,400 -1,258 Descending Cleveland Center
Mon 12:20:41 PM 43.1064 -83.5067 253° West 430 495 38,200 -1,161 Descending Cleveland Center
Mon 12:21:43 PM 43.0703 -83.6597 252° West 427 491 37,000 -1,161 Descending Cleveland Center
Mon 12:22:45 PM 43.0325 -83.8161 252° West 435 501 35,800 -1,152 Descending Cleveland Center
Mon 12:23:48 PM 42.9981 -83.9739 253° West 438 504 34,600 -1,584 Descending Cleveland Center
Mon 12:24:50 PM 43.0317 -84.1711 283° West 448 516 32,500 -1,984 Descending Cleveland Center
Mon 12:25:52 PM 43.0614 -84.3406 284° West 458 527 30,500 -1,210 Descending Cleveland Center
Mon 12:26:54 PM 43.0203 -84.5183 253° West 466 536 30,000 -204 Descending Cleveland Center
Mon 12:28:19 PM 42.9439 -84.7453 245° Southwest 469 540 30,000  Level Chicago Center
Mon 12:29:21 PM 42.8886 -84.9033 245° Southwest 464 534 30,000  Level Chicago Center
Mon 12:30:23 PM 42.8344 -85.0631 245° Southwest 463 533 30,000  Level Chicago Center
Mon 12:31:25 PM 42.7772 -85.2225 244° Southwest 466 536 30,000 -774 Level Chicago Center
Mon 12:32:27 PM 42.7211 -85.3836 245° Southwest 469 540 28,400 -1,452 Descending Chicago Center
Mon 12:33:29 PM 42.6658 -85.5431 245° Southwest 466 536 27,000 -1,065 Descending Chicago Center
Mon 12:34:31 PM 42.6100 -85.7006 244° Southwest 463 533 26,200 -871 Descending Chicago Center
Mon 12:35:33 PM 42.5442 -85.8836 244° Southwest 453 521 25,200 -1,016 Descending Chicago Center
Mon 12:36:35 PM 42.4900 -86.0353 244° Southwest 447 514 24,100 -1,935 Descending Chicago Center
Mon 12:37:37 PM 42.4669 -86.1933 259° West 436 502 21,200 -3,097 Descending Chicago Center
Mon 12:38:39 PM 42.4717 -86.3481 272° West 410 472 17,700 -3,120 Descending Chicago Center
Mon 12:39:42 PM 42.4758 -86.4861 272° West 369 425 14,700 -2,400 Descending Chicago Center
Mon 12:40:44 PM 42.4797 -86.6058 273° West 321 369 12,700 -2,081 Descending Chicago Center
Mon 12:41:46 PM 42.4847 -86.7397 273° West 298 343 10,400 -1,935 Descending Chicago Center
Mon 12:42:48 PM 42.4872 -86.8447 272° West 285 328 8,700 -1,694 Descending Chicago Center
Mon 12:43:50 PM 42.4897 -86.9481 272° West 278 320 6,900 -1,694 Descending Chicago Center
Mon 12:44:52 PM 42.4900 -87.0478 270° West 271 312 5,200 -1,694 Descending Chicago Center
Mon 12:45:54 PM 42.4931 -87.1519 272° West 274 315 3,400 -1,065 Descending Chicago Center
Mon 12:46:56 PM 42.4961 -87.2525 272° West 273 314 3,000 -194 Descending Chicago Center
Mon 12:47:58 PM 42.4972 -87.3511 271° West 269 310 3,000  Level Chicago Center
Mon 12:49:00 PM 42.4989 -87.4669 271° West 262 302 3,000  Level Chicago Center
Mon 12:50:02 PM 42.5003 -87.5622 271° West 262 302 3,000 -145 Level Chicago Center
Mon 12:51:04 PM 42.4931 -87.6558 264° West 254 292 2,700 -388 Descending Chicago Center
Mon 12:52:52 PM 42.4667 -87.8000 256° West 177 204 1,900 -533 Descending Chicago TRACON
Mon 12:53:53 PM 42.4500 -87.8333 236° Southwest 126 145 1,200 -689 Descending Chicago TRACON
Mon 12:55:00 PM 42.4167 -87.8667 270° West  Level FlightAware
Mon 01:02:00 PM 42.4222 -87.8679 270° West  Level Estimated

Login

Don't have an account? Register now (free) for customized features, flight alerts, and more!